Efogi Airport

EFG · Northern Province, Papua New Guinea

October 2, 2022

Time Code Weather Temp. Visibility Ceiling Wind METAR/SPECI
21:00
V
27 °C 10 km+ - 140° 140° 6 kt METAR AYPY 021100Z 14006KT 9999 FEW030 SCT050 27/24 Q1009
20:00
V
28 °C 10 km+ - 130° 130° 8 kt METAR AYPY 021000Z 13008KT 9999 FEW030 SCT050 28/25 Q1008
19:00
V
28 °C 10 km+ - 150° 150° 10 kt METAR AYPY 020900Z 15010KT 9999 SCT040 SCT060 28/25 Q1008
17:00
V
29 °C 10 km+ - 140° 140° 15 - 20 kt METAR AYPY 020700Z 14015G20KT 9999 FEW040 SCT130 29/25 Q1006
15:00
V
31 °C 10 km+ - 150° 150° 10 - 15 kt METAR AYPY 020500Z 15010G15KT 9999 HZ SCT030 31/24 Q1005 RMK
14:00
V
32 °C 10 km+ - 160° 160° 10 - 15 kt METAR AYPY 020400Z 16010G15KT 9999 HZ SCT030 32/24 Q1006 RMK
13:00
V
32 °C 10 km+ - 200° 200° 10 - 17 kt METAR AYPY 020300Z 20010G17KT 9999 HZ SCT030 SCT040 32/25 Q1006 RMK/CB TO NW/ N AND E
12:00
V
32 °C 10 km+ - 200° 200° 15 kt METAR AYPY 020200Z 20015KT 9999 HZ SCT030 32/25 Q1007 RMK/CB FM NW TO E
11:00
V
31 °C 10 km+ - 140° 140° 10 kt METAR AYPY 020100Z 14010KT 9999 HZ SCT025 31/25 Q1008 RMK/CB TO NW
10:00
V
30 °C 10 km+ - 340° 340° 8 kt METAR AYPY 020000Z 34008KT 9999 HZ FEW015 SCT025 30/24 Q1009 RMK
09:00
V
30 °C 10 km+ - 350° 350° 8 kt METAR AYPY 012300Z 35008KT 9999 HZ FEW015 SCT030 30/24 Q1009 RMK
08:00
V
28 °C 10 km+ - 340° 340° 8 kt METAR AYPY 012200Z 34008KT 9999 HZ FEW015 SCT030 28/24 Q1009 RMKS/ CB TO W
07:00
V
27 °C 10 km+ - Var Var 5 kt METAR AYPY 012100Z VRB05KT 9999 HZ FEW010 SCT030 27/24 Q1009 RMK
06:00
V
25 °C 10 km+ - Var Var 3 kt METAR AYPY 012000Z VRB03KT 9999 HZ FEW010 SCT035 25/24 Q1008 RMK/ CB TO W
05:00
V
25 °C 10 km+ - Var Var 4 kt METAR AYPY 011900Z VRB04KT 9999 FEW010 SCT030 25/24 Q1008
04:00
V
25 °C 10 km+ - Var Var 3 kt METAR AYPY 011800Z VRB03KT 9999 FEW010 SCT025 25/24 Q1007
03:00
V
25 °C 10 km+ - Var Var 3 kt METAR AYPY 011700Z VRB03KT 9999 SCT100 25/24 Q1007
02:00
V
26 °C 10 km+ - 120° 120° 5 kt METAR AYPY 011600Z 12005KT 9999 SCT030 26/24 Q1007
01:00
V
26 °C 10 km+ - 140° 140° 10 kt METAR AYPY 011500Z 14010KT 9999 SCT030 26/24 Q1008
00:00
V
26 °C 10 km+ - 140° 140° 6 kt METAR AYPY 011400Z 14006KT 9999 FEW050 26/24 Q1008=

October 1, 2022

Time Code Weather Temp. Visibility Ceiling Wind METAR/SPECI
23:00
V
27 °C 10 km+ - 140° 140° 7 kt METAR AYPY 011300Z 14007KT 9999 FEW050 27/25 Q1008
22:00
V
27 °C 10 km+ - 150° 150° 13 kt METAR AYPY 011200Z 15013KT 9999 SCT070 27/25 Q1008
21:00
V
27 °C 10 km+ - 160° 160° 10 kt METAR AYPY 011100Z 16010KT 9999 SCT070 27/25 Q1008
20:00
V
28 °C 10 km+ - 140° 140° 14 kt METAR AYPY 011000Z 14014KT 9999 SCT070 28/25 Q1008
19:00
V
28 °C 10 km+ - 160° 160° 15 - 21 kt METAR AYPY 010900Z 16015G21KT 9999 SCT050 28/25 Q1007
18:00
V
28 °C 10 km+ - 160° 160° 15 - 25 kt METAR AYPY 010800Z 16015G25KT 9999 HZ SCT050 28/25 Q1006
17:00
V
29 °C 10 km+ - 160° 160° 20 - 25 kt METAR AYPY 010700Z 16020G25KT 9999 HZ SCT030 SCT050 29/25 Q1006
16:00
V
31 °C 10 km+ - 160° 160° 15 - 20 kt METAR AYPY 010600Z 16015G20KT 9999 HZ FEW020 SCT030 31/24 Q1006
15:00
V
30 °C 10 km+ - 150° 150° 10 - 20 kt METAR AYPY 010500Z 15010G20KT 9999 HZ SCT030 30/25 Q1006
14:00
V
32 °C 10 km+ - 170° 170° 15 kt METAR AYPY 010400Z 17015KT 9999 HZ FEW025 SCT030 32/25 Q1006
13:00
V
32 °C 10 km+ - 170° 170° 15 kt METAR AYPY 010300Z 17015KT 9999 HZ FEW025 SCT030 32/25 Q1006
12:00
V
32 °C 10 km+ 3,500 ft 130° 130° 15 kt METAR AYPY 010200Z 13015KT 9999 HZ FEW020 BKN035 32/25 Q1008=
11:00
V
31 °C 10 km+ 3,500 ft 220° 220° 8 kt METAR AYPY 010100Z 22008KT 9999 HZ FEW020 BKN035 31/25 Q1009
10:00
V
30 °C 10 km+ 3,500 ft 220° 220° 10 kt METAR AYPY 010000Z 22010KT 9999 HZ FEW020 BKN035 30/25 Q1010
09:00
V
31 °C 10 km+ - 270° 270° 5 kt METAR AYPY 302300Z 27005KT 9999 SCT035 31/25 Q1010
08:00
V
29 °C 10 km+ - Var Var 3 kt METAR AYPY 302200Z VRB03KT 9999 SKC 29/24 Q1010
07:00
V
27 °C 10 km+ - Var Var 3 kt METAR AYPY 302100Z VRB03KT 9999 HZ FEW030 27/24 Q1009
06:00
V
25 °C 10 km+ - Var Var 2 kt METAR AYPY 302000Z VRB02KT 9999 FEW030 SCT100 25/24 Q1008
05:00
V
25 °C 10 km+ - 130° 130° 5 kt METAR AYPY 301900Z 13005KT 9999 SCT070 25/24 Q1008
03:00
V
26 °C 10 km+ 8,000 ft 140° 140° 5 kt METAR AYPY 301700Z 14005KT 9999 SCT050 BKN080 26/24 Q1008
02:00
V
26 °C 10 km+ 6,000 ft 150° 150° 5 kt METAR AYPY 301600Z 15005KT 9999 SCT040 BKN060 26/24 Q1008
01:00
V
27 °C 10 km+ - 120° 120° 10 kt METAR AYPY 301500Z 12010KT 9999 FEW030 SCT060 27/24 Q1008=
00:00
V
27 °C 10 km+ - 150° 150° 10 kt METAR AYPY 301400Z 15010KT 9999 SCT045 27/24 Q1009

September 30, 2022

Time Code Weather Temp. Visibility Ceiling Wind METAR/SPECI
23:00
V
28 °C 10 km+ - 150° 150° 15 kt METAR AYPY 301300Z 15015KT 9999 SCT055 28/24 Q1009
Older data

We and third parties follow your internet behavior on our website with cookies. If you continue, we assume you agree with our cookie policy. Learn more